createdAt,value
2022-11-18T00:08:25.859Z,106.67479
2022-11-18T00:23:28.108Z,17.9789
2022-11-18T00:38:30.657Z,1.19859
2022-11-18T00:53:33.211Z,0
2022-11-18T01:08:35.745Z,0
2022-11-18T01:23:38.240Z,0
2022-11-18T01:38:40.479Z,0
2022-11-18T01:53:42.721Z,0
2022-11-18T02:08:45.306Z,0
2022-11-18T02:23:47.766Z,0
2022-11-18T02:38:50.007Z,0
2022-11-18T02:53:52.310Z,0
2022-11-18T03:08:54.882Z,0
2022-11-18T03:23:57.143Z,0
2022-11-18T03:38:59.900Z,0
2022-11-18T03:54:02.148Z,0
2022-11-18T04:09:04.405Z,0
2022-11-18T04:24:06.747Z,0
2022-11-18T04:39:09.365Z,0
2022-11-18T04:54:11.713Z,0
2022-11-18T05:09:13.985Z,0
2022-11-18T05:24:16.971Z,0
2022-11-18T05:39:19.710Z,0
2022-11-18T05:54:22.269Z,0
2022-11-18T06:09:24.522Z,0
2022-11-18T06:24:26.780Z,0
2022-11-18T06:39:29.092Z,0
2022-11-18T06:54:31.455Z,0
2022-11-18T07:09:33.954Z,0
2022-11-18T07:24:36.668Z,0
2022-11-18T07:39:38.911Z,0
2022-11-18T07:54:41.296Z,0
2022-11-18T08:09:43.556Z,0
2022-11-18T08:24:45.908Z,0
2022-11-18T08:39:48.192Z,0
2022-11-18T08:54:50.622Z,0
2022-11-18T09:09:53.173Z,0
2022-11-18T09:24:55.395Z,0
2022-11-18T09:39:58.216Z,0
2022-11-18T09:55:00.900Z,0
2022-11-18T10:10:03.232Z,0
2022-11-18T10:25:05.762Z,0
2022-11-18T10:40:08.728Z,0
2022-11-18T10:55:11.378Z,0
2022-11-18T11:10:13.780Z,0
2022-11-18T11:25:16.692Z,0
2022-11-18T11:40:19.076Z,0
2022-11-18T11:55:21.310Z,0
2022-11-18T12:10:23.726Z,0
2022-11-18T12:25:26.026Z,0
2022-11-18T12:40:28.539Z,0
2022-11-18T12:55:31.300Z,0
2022-11-18T13:10:33.637Z,0
2022-11-18T13:25:35.830Z,0
2022-11-18T13:40:38.224Z,0
2022-11-18T13:55:40.568Z,0
2022-11-18T14:10:42.888Z,0
2022-11-18T14:25:45.171Z,0
2022-11-18T14:40:47.717Z,2.39719
2022-11-18T14:55:49.988Z,17.9789
2022-11-18T15:10:52.214Z,69.5184
2022-11-18T15:25:54.478Z,163.00867
2022-11-18T15:40:56.929Z,245.71159
2022-11-18T15:55:59.134Z,365.57092
2022-11-18T16:11:01.397Z,540.56549
2022-11-18T16:26:03.839Z,765.901
2022-11-18T16:41:06.235Z,909.73218
2022-11-18T16:56:08.486Z,1205.78467
2022-11-18T17:11:10.701Z,1230.9552
2022-11-18T17:26:13.014Z,1464.68079
2022-11-18T17:41:15.234Z,1663.64734
2022-11-18T17:56:17.617Z,2242.56787
2022-11-18T18:11:21.451Z,2765.1543
2022-11-18T18:26:28.284Z,2968.91528
2022-11-18T18:41:33.626Z,4032.06738
2022-11-18T18:56:35.872Z,3298.52832
2022-11-18T19:11:38.100Z,3654.5105
2022-11-18T19:26:40.389Z,3630.53857
2022-11-18T19:41:42.641Z,4554.65381
2022-11-18T19:56:44.830Z,4821.94043
2022-11-18T20:11:47.103Z,4511.50439
2022-11-18T20:26:49.434Z,4908.23877
2022-11-18T20:41:51.662Z,5010.11914
2022-11-18T20:56:53.907Z,5188.70947
2022-11-18T21:11:56.172Z,5089.22656
2022-11-18T21:26:58.459Z,4373.6665
2022-11-18T21:42:00.645Z,3746.80225
2022-11-18T21:57:02.861Z,3224.21558
2022-11-18T22:12:05.095Z,2428.34961
2022-11-18T22:27:11.306Z,1331.63696
2022-11-18T22:42:13.979Z,1172.22412
2022-11-18T22:57:16.226Z,1023.59857
2022-11-18T23:12:18.427Z,855.79553
2022-11-18T23:27:20.655Z,652.03467
2022-11-18T23:42:22.905Z,421.90479
2022-11-18T23:57:25.166Z,218.14395
